< < Back
Terminal Aerodrome Forecast


Current Version              Previous Versions:   1  2  3  4  5  6  7  8  9  

Terminal Aerodrome Forecast

130
FTUS42 KFFC 221727
TAFCSG
TAF
KCSG 221727Z 2218/2318 23005KT P6SM SCT045
     FM222000 23006KT P6SM VCSH SCT050
     FM230200 22003KT P6SM FEW120 SCT250
     FM231500 26005KT P6SM FEW035
     FM231700 23006KT P6SM VCSH SCT050=

Latest METAR

321
SAUS70 KWBC 230900
MTRCSG
METAR KCSG 230851Z AUTO 12003KT 10SM CLR 24/22 A3001 RMK AO2 SLP155
T02390222 58009 $


USA.gov is the U.S. government's official web portal to all federal, state and local government web resources and services.